Time;durP1;ratioP1;P1;durP2;ratioP2;P2;SDS_P1;SDS_P2;PMS_P1;PMS_P2;Temp;Humidity;BMP_temperature;BMP_pressure;BME280_temperature;BME280_humidity;BME280_pressure;Samples;Min_cycle;Max_cycle;Signal;HPM_P1;HPM_P2
2024/02/17 00:00:42;;;;;;;9.90;7.50;;;10.20;99.90;;;;;;5018840;28;21020;-56
2024/02/17 00:03:12;;;;;;;12.77;7.33;;;10.20;99.90;;;;;;5017970;28;20286;-57
2024/02/17 00:05:39;;;;;;;9.83;6.47;;;10.20;99.90;;;;;;4992826;28;20378;-55
2024/02/17 00:08:06;;;;;;;10.00;7.60;;;10.10;99.90;;;;;;5020519;28;20196;-56
2024/02/17 00:10:33;;;;;;;11.43;7.87;;;10.00;99.90;;;;;;5006930;28;20208;-53
2024/02/17 00:13:00;;;;;;;9.93;7.00;;;10.00;99.90;;;;;;5020280;28;20204;-52
2024/02/17 00:15:27;;;;;;;9.23;7.20;;;10.00;99.90;;;;;;5014485;28;20219;-52
2024/02/17 00:17:54;;;;;;;13.00;7.37;;;9.90;99.90;;;;;;5016092;28;20680;-57
2024/02/17 00:20:22;;;;;;;20.60;7.90;;;9.90;99.90;;;;;;5015635;28;20199;-56
2024/02/17 00:22:49;;;;;;;14.50;7.30;;;9.70;99.90;;;;;;4989104;28;20211;-57
2024/02/17 00:25:16;;;;;;;9.10;6.67;;;9.70;99.90;;;;;;5018669;28;20235;-52
2024/02/17 00:27:43;;;;;;;10.97;6.60;;;9.60;99.90;;;;;;5005395;28;20204;-57
2024/02/17 00:30:11;;;;;;;15.73;7.60;;;9.50;99.90;;;;;;5016392;28;20575;-55
2024/02/17 00:32:38;;;;;;;13.80;7.43;;;9.50;99.90;;;;;;5015034;28;20196;-55
2024/02/17 00:35:05;;;;;;;14.73;7.70;;;9.50;99.90;;;;;;5002086;28;20409;-51
2024/02/17 00:37:34;;;;;;;10.57;6.10;;;9.50;99.90;;;;;;4994951;28;20206;-50
2024/02/17 00:40:03;;;;;;;13.10;7.03;;;9.40;99.90;;;;;;5018012;28;20210;-49
2024/02/17 00:42:29;;;;;;;16.50;7.10;;;9.40;99.90;;;;;;5011417;28;20687;-49
2024/02/17 00:44:56;;;;;;;11.83;6.80;;;9.40;99.90;;;;;;5017391;28;20204;-50
2024/02/17 00:47:23;;;;;;;9.47;6.13;;;9.30;99.90;;;;;;5021708;28;20246;-47
2024/02/17 00:49:50;;;;;;;12.93;7.03;;;9.30;99.90;;;;;;5009691;28;20338;-53
2024/02/17 00:52:16;;;;;;;12.07;7.50;;;9.30;99.90;;;;;;4986287;28;20232;-50
2024/02/17 00:54:45;;;;;;;10.33;7.10;;;9.20;99.90;;;;;;5018276;28;20208;-56
2024/02/17 00:57:11;;;;;;;13.17;6.80;;;9.10;99.90;;;;;;5010738;28;20199;-51
2024/02/17 00:59:38;;;;;;;12.53;7.17;;;9.10;99.90;;;;;;5019387;28;20204;-56
2024/02/17 01:02:05;;;;;;;10.73;7.60;;;9.10;99.90;;;;;;5018634;28;20203;-50
2024/02/17 01:04:32;;;;;;;12.87;8.43;;;9.10;99.90;;;;;;5020727;28;20199;-55
2024/02/17 01:06:59;;;;;;;14.30;7.57;;;9.00;99.90;;;;;;4983316;28;25091;-51
2024/02/17 01:09:25;;;;;;;10.93;7.03;;;9.00;99.90;;;;;;5005377;28;20318;-49
2024/02/17 01:11:54;;;;;;;12.93;7.57;;;9.00;99.90;;;;;;5020232;28;20296;-52
2024/02/17 01:14:21;;;;;;;15.60;7.83;;;9.00;99.90;;;;;;5006210;28;20212;-52
2024/02/17 01:16:48;;;;;;;15.57;7.10;;;8.90;99.90;;;;;;5017770;28;20370;-54
2024/02/17 01:19:15;;;;;;;13.33;7.07;;;8.90;99.90;;;;;;5016832;28;20200;-56
2024/02/17 01:21:42;;;;;;;15.13;7.30;;;9.00;99.90;;;;;;5010899;28;20554;-50
2024/02/17 01:24:09;;;;;;;12.40;6.50;;;8.90;99.90;;;;;;4994529;28;20708;-54
2024/02/17 01:26:36;;;;;;;12.23;6.73;;;8.90;99.90;;;;;;5021712;28;20211;-50
2024/02/17 01:29:04;;;;;;;10.17;6.13;;;8.90;99.90;;;;;;5011407;28;20216;-53
2024/02/17 01:31:31;;;;;;;14.77;6.57;;;8.90;99.90;;;;;;5019153;28;20261;-49
2024/02/17 01:33:57;;;;;;;14.17;6.90;;;8.80;99.90;;;;;;5019889;28;20705;-49
2024/02/17 01:36:24;;;;;;;15.73;7.33;;;8.90;99.90;;;;;;5010394;28;20195;-51
2024/02/17 01:38:51;;;;;;;14.07;6.60;;;8.80;99.90;;;;;;4998672;28;20322;-53
2024/02/17 01:41:18;;;;;;;11.93;6.77;;;8.80;99.90;;;;;;5021119;28;20250;-56
2024/02/17 01:43:45;;;;;;;16.23;6.37;;;8.80;99.90;;;;;;5022583;28;20615;-54
2024/02/17 01:46:13;;;;;;;7.70;5.37;;;8.70;99.90;;;;;;5020391;28;20223;-56
2024/02/17 01:48:40;;;;;;;10.93;5.13;;;8.60;99.90;;;;;;5021532;28;20541;-53
2024/02/17 01:51:09;;;;;;;7.87;4.33;;;8.50;99.90;;;;;;5022165;28;20214;-56
2024/02/17 01:53:35;;;;;;;7.37;4.20;;;8.50;99.90;;;;;;5015348;28;20199;-47
2024/02/17 01:56:03;;;;;;;5.23;3.70;;;8.40;99.90;;;;;;4997125;28;20273;-54
2024/02/17 01:58:30;;;;;;;6.40;3.60;;;8.30;99.90;;;;;;5020523;28;20897;-57
2024/02/17 02:00:57;;;;;;;5.93;3.70;;;8.30;99.90;;;;;;5024281;28;20207;-56
2024/02/17 02:03:26;;;;;;;5.63;3.03;;;8.30;99.90;;;;;;5020604;28;20196;-54
2024/02/17 02:05:52;;;;;;;4.23;3.10;;;8.30;99.90;;;;;;5023457;28;20297;-51
2024/02/17 02:08:20;;;;;;;5.90;3.47;;;8.20;99.90;;;;;;5012036;28;20200;-52
2024/02/17 02:10:47;;;;;;;5.47;2.77;;;8.20;99.90;;;;;;4992669;28;20623;-53
2024/02/17 02:13:14;;;;;;;3.30;2.53;;;8.20;99.90;;;;;;5019017;28;20220;-52
2024/02/17 02:15:42;;;;;;;2.90;2.47;;;8.20;99.90;;;;;;5019866;28;20955;-49
2024/02/17 02:18:10;;;;;;;3.43;2.43;;;8.10;99.90;;;;;;5014225;28;20690;-51
2024/02/17 02:20:38;;;;;;;2.70;2.40;;;8.20;99.90;;;;;;5020270;28;20498;-49
2024/02/17 02:23:05;;;;;;;4.40;2.33;;;8.20;99.90;;;;;;5019902;28;20197;-55
2024/02/17 02:25:33;;;;;;;3.00;2.30;;;8.20;99.90;;;;;;5013924;28;20208;-54
2024/02/17 02:28:01;;;;;;;2.40;2.20;;;8.10;99.90;;;;;;4993063;28;20270;-51
2024/02/17 02:30:28;;;;;;;2.40;2.03;;;8.10;99.90;;;;;;5014351;28;20925;-53
2024/02/17 02:32:58;;;;;;;2.77;2.57;;;8.10;99.90;;;;;;5019686;28;21002;-49
2024/02/17 02:35:25;;;;;;;2.33;2.13;;;8.10;99.90;;;;;;5016631;28;20212;-51
2024/02/17 02:37:52;;;;;;;3.90;2.50;;;8.00;99.90;;;;;;5019639;28;20207;-53
2024/02/17 02:40:20;;;;;;;2.50;2.30;;;8.00;99.90;;;;;;5007523;28;20202;-57
2024/02/17 02:42:47;;;;;;;4.97;2.53;;;8.00;99.90;;;;;;4995899;28;20545;-55
2024/02/17 02:45:15;;;;;;;3.23;2.73;;;8.00;99.90;;;;;;5018073;28;20216;-57
2024/02/17 02:47:42;;;;;;;3.07;2.40;;;8.00;99.90;;;;;;5018460;28;20654;-54
2024/02/17 02:50:10;;;;;;;4.07;2.40;;;7.90;99.90;;;;;;5017988;28;20205;-57
2024/02/17 02:52:37;;;;;;;3.03;2.53;;;8.00;99.90;;;;;;5019972;28;20783;-56
2024/02/17 02:55:05;;;;;;;3.00;2.20;;;7.90;99.90;;;;;;5014204;28;20216;-56
2024/02/17 02:57:32;;;;;;;2.20;2.10;;;7.90;99.90;;;;;;4992270;28;20548;-56
2024/02/17 02:59:59;;;;;;;3.77;2.50;;;7.90;99.90;;;;;;5022004;28;20674;-54
2024/02/17 03:02:27;;;;;;;3.83;2.77;;;7.90;99.90;;;;;;5018866;28;20939;-54
2024/02/17 03:04:55;;;;;;;2.20;2.10;;;7.90;99.90;;;;;;5021737;28;20231;-56
2024/02/17 03:07:22;;;;;;;2.10;1.57;;;7.90;99.90;;;;;;5018494;28;20203;-51
2024/02/17 03:09:49;;;;;;;2.40;1.17;;;7.90;99.90;;;;;;5014573;28;20685;-49
2024/02/17 03:12:16;;;;;;;2.93;1.23;;;7.80;99.90;;;;;;4997772;28;20204;-54
2024/02/17 03:14:43;;;;;;;2.53;1.00;;;7.60;99.90;;;;;;5001746;28;20299;-53
2024/02/17 03:17:11;;;;;;;0.77;0.77;;;7.50;99.90;;;;;;5007368;28;20694;-54
2024/02/17 03:19:39;;;;;;;1.27;0.80;;;7.50;99.90;;;;;;5016652;28;20211;-51
2024/02/17 03:22:06;;;;;;;0.70;0.70;;;7.40;99.90;;;;;;5015088;28;20201;-53
2024/02/17 03:24:33;;;;;;;0.70;0.70;;;7.30;99.90;;;;;;5006927;28;20214;-54
2024/02/17 03:27:00;;;;;;;0.70;0.40;;;7.30;99.90;;;;;;5016400;28;20221;-57
2024/02/17 03:29:27;;;;;;;1.57;0.73;;;7.20;99.90;;;;;;4989743;28;20936;-53
2024/02/17 03:31:54;;;;;;;3.37;0.50;;;7.20;99.90;;;;;;5017663;28;20756;-56
2024/02/17 03:34:20;;;;;;;3.00;0.60;;;7.20;99.90;;;;;;5015873;28;20199;-55
2024/02/17 03:36:49;;;;;;;1.33;0.50;;;7.20;99.90;;;;;;5018696;28;20301;-55
2024/02/17 03:39:18;;;;;;;0.40;0.40;;;7.20;99.90;;;;;;5012620;28;20196;-55
2024/02/17 03:41:46;;;;;;;0.57;0.40;;;7.20;99.90;;;;;;5015393;28;20208;-52
2024/02/17 03:44:13;;;;;;;2.20;0.40;;;7.20;99.90;;;;;;4987449;28;20209;-56
2024/02/17 03:46:39;;;;;;;2.00;0.37;;;7.20;99.90;;;;;;5018176;28;20204;-54
2024/02/17 03:49:06;;;;;;;1.83;0.37;;;7.20;99.90;;;;;;5019101;28;20275;-54
2024/02/17 03:51:33;;;;;;;2.10;0.50;;;7.20;99.90;;;;;;5018406;28;20202;-54
2024/02/17 03:54:02;;;;;;;1.23;0.40;;;7.10;99.90;;;;;;5018493;28;20215;-54
2024/02/17 03:56:29;;;;;;;0.50;0.30;;;7.10;99.90;;;;;;5005740;28;20343;-55
2024/02/17 03:58:56;;;;;;;2.20;0.67;;;7.10;99.90;;;;;;5020201;28;20210;-52
2024/02/17 04:01:26;;;;;;;1.33;0.40;;;7.10;99.90;;;;;;4990099;28;20579;-55
2024/02/17 04:03:53;;;;;;;1.30;0.40;;;7.10;99.90;;;;;;5018144;28;20196;-52
2024/02/17 04:06:21;;;;;;;0.63;0.40;;;7.10;99.90;;;;;;5015052;28;21044;-55
2024/02/17 04:08:47;;;;;;;1.87;0.60;;;7.10;99.90;;;;;;5019258;28;20297;-54
2024/02/17 04:11:16;;;;;;;0.90;0.57;;;7.10;99.90;;;;;;5009844;28;20212;-56
2024/02/17 04:13:45;;;;;;;2.03;0.90;;;7.10;99.90;;;;;;5020597;28;20192;-54
2024/02/17 04:16:12;;;;;;;0.90;0.57;;;7.00;99.90;;;;;;4990694;28;20557;-53
2024/02/17 04:18:39;;;;;;;0.50;0.50;;;7.00;99.90;;;;;;5019302;28;20185;-51
2024/02/17 04:21:06;;;;;;;1.70;0.43;;;7.00;99.90;;;;;;5020059;28;20560;-54
2024/02/17 04:23:34;;;;;;;1.47;0.47;;;7.00;99.90;;;;;;5016456;28;20811;-51
2024/02/17 04:26:03;;;;;;;0.93;0.70;;;6.90;99.90;;;;;;5013340;28;20228;-51
2024/02/17 04:28:31;;;;;;;0.60;0.50;;;6.90;99.90;;;;;;5018242;28;20250;-54
2024/02/17 04:30:58;;;;;;;1.57;0.60;;;6.90;99.90;;;;;;4992432;28;20211;-52
2024/02/17 04:33:25;;;;;;;3.47;0.70;;;6.90;99.90;;;;;;5014986;28;20208;-53
2024/02/17 04:35:55;;;;;;;1.73;0.80;;;6.80;99.90;;;;;;5017668;28;20220;-55
2024/02/17 04:38:21;;;;;;;1.57;0.43;;;6.80;99.90;;;;;;5014837;28;20208;-57
2024/02/17 04:40:49;;;;;;;1.20;0.60;;;6.80;99.90;;;;;;5016693;28;20204;-50
2024/02/17 04:43:16;;;;;;;1.00;0.40;;;6.80;99.90;;;;;;5008428;28;20204;-55
2024/02/17 04:45:44;;;;;;;1.47;0.50;;;6.70;99.90;;;;;;5017874;28;20761;-54
2024/02/17 04:48:11;;;;;;;2.20;0.50;;;6.60;99.90;;;;;;4986887;28;20220;-56
2024/02/17 04:50:38;;;;;;;0.40;0.33;;;6.60;99.90;;;;;;5016728;28;20257;-54
2024/02/17 04:53:05;;;;;;;0.50;0.47;;;6.60;99.90;;;;;;5017155;28;20283;-51
2024/02/17 04:55:32;;;;;;;1.23;0.30;;;6.60;99.90;;;;;;5015524;28;20220;-46
2024/02/17 04:57:59;;;;;;;2.47;0.50;;;6.50;99.90;;;;;;5005400;28;20277;-49
2024/02/17 05:00:26;;;;;;;0.93;0.60;;;6.50;99.90;;;;;;5018998;28;20196;-48
2024/02/17 05:02:55;;;;;;;4.50;0.30;;;6.50;99.90;;;;;;4991454;28;20299;-46
2024/02/17 05:05:21;;;;;;;2.53;0.30;;;6.60;99.90;;;;;;5012636;28;20224;-51
2024/02/17 05:07:48;;;;;;;2.90;0.43;;;6.50;99.90;;;;;;5022219;28;20250;-51
2024/02/17 05:10:15;;;;;;;1.97;0.30;;;6.50;99.90;;;;;;5019779;28;20192;-51
2024/02/17 05:12:42;;;;;;;1.23;0.20;;;6.50;99.90;;;;;;5015771;28;20191;-51
2024/02/17 05:15:09;;;;;;;1.97;0.47;;;6.50;99.90;;;;;;5022708;28;20232;-52
2024/02/17 05:17:36;;;;;;;1.00;0.20;;;6.50;99.90;;;;;;4999135;28;20204;-50
2024/02/17 05:20:05;;;;;;;1.33;0.20;;;6.50;99.90;;;;;;4998367;28;20207;-49
2024/02/17 05:22:32;;;;;;;2.20;0.20;;;6.60;99.90;;;;;;5009502;28;20944;-51
2024/02/17 05:24:59;;;;;;;4.80;0.40;;;6.60;99.90;;;;;;5022561;28;20278;-51
2024/02/17 05:27:26;;;;;;;3.10;0.40;;;6.60;99.90;;;;;;5011165;28;20196;-50
2024/02/17 05:29:52;;;;;;;2.57;0.50;;;6.60;99.90;;;;;;5022777;28;20740;-49
2024/02/17 05:32:19;;;;;;;0.50;0.43;;;6.60;99.90;;;;;;5019903;28;20307;-53
2024/02/17 05:34:46;;;;;;;1.27;0.60;;;6.50;99.90;;;;;;4986192;28;20208;-52
2024/02/17 05:37:14;;;;;;;1.37;0.90;;;6.60;99.90;;;;;;5021935;28;20215;-54
2024/02/17 05:39:42;;;;;;;0.80;0.47;;;6.60;99.90;;;;;;5020152;28;20218;-50
2024/02/17 05:42:09;;;;;;;2.37;0.70;;;6.50;99.90;;;;;;5019954;28;20201;-50
2024/02/17 05:44:35;;;;;;;2.50;0.90;;;6.50;99.90;;;;;;5014438;28;20203;-46
2024/02/17 05:47:02;;;;;;;0.87;0.60;;;6.50;99.90;;;;;;5020851;28;20270;-47
2024/02/17 05:49:29;;;;;;;1.83;0.50;;;6.50;99.90;;;;;;4984385;28;20919;-48
2024/02/17 05:51:56;;;;;;;2.93;0.50;;;6.50;99.90;;;;;;5022412;28;20840;-51
2024/02/17 05:54:25;;;;;;;5.07;0.90;;;6.40;99.90;;;;;;5018344;28;20202;-56
2024/02/17 05:56:51;;;;;;;2.80;0.97;;;6.40;99.90;;;;;;5021514;28;20224;-52
2024/02/17 05:59:18;;;;;;;2.47;0.60;;;6.40;99.90;;;;;;5013291;28;20204;-49
2024/02/17 06:01:46;;;;;;;3.23;0.60;;;6.40;99.90;;;;;;5009482;28;20262;-49
2024/02/17 06:04:15;;;;;;;2.00;0.60;;;6.40;99.90;;;;;;5008160;28;20216;-54
2024/02/17 06:06:44;;;;;;;2.67;0.50;;;6.40;99.90;;;;;;4998562;28;22943;-48
2024/02/17 06:09:11;;;;;;;2.13;0.53;;;6.50;99.90;;;;;;5021722;28;20212;-54
2024/02/17 06:11:39;;;;;;;1.33;0.63;;;6.50;99.90;;;;;;5020626;28;20278;-50
2024/02/17 06:14:06;;;;;;;1.23;0.93;;;6.50;99.90;;;;;;5019845;28;20212;-52
2024/02/17 06:16:33;;;;;;;4.97;0.73;;;6.40;99.90;;;;;;5010610;28;20335;-53
2024/02/17 06:21:44;;;;;;;2.83;0.57;;;6.50;99.90;;;;;;5000652;28;20195;-46
2024/02/17 06:24:13;;;;;;;3.63;0.60;;;6.50;99.90;;;;;;5018848;28;20192;-49
2024/02/17 06:26:41;;;;;;;4.87;1.00;;;6.50;99.90;;;;;;5021992;28;20269;-51
2024/02/17 06:29:08;;;;;;;6.97;1.13;;;6.50;99.90;;;;;;5019676;28;20728;-49
2024/02/17 06:31:34;;;;;;;3.50;0.90;;;6.50;99.90;;;;;;5014016;28;20192;-49
2024/02/17 06:34:01;;;;;;;5.03;1.10;;;6.50;99.90;;;;;;5017564;28;20233;-47
2024/02/17 06:36:28;;;;;;;7.53;2.10;;;6.50;99.90;;;;;;4996065;28;20271;-50
2024/02/17 06:38:55;;;;;;;4.17;1.20;;;6.50;99.90;;;;;;5007660;28;20232;-48
2024/02/17 06:41:22;;;;;;;4.43;1.47;;;6.50;99.90;;;;;;5020394;28;20640;-47
2024/02/17 06:43:50;;;;;;;3.80;1.20;;;6.50;99.90;;;;;;5017810;28;20203;-52
2024/02/17 06:46:17;;;;;;;6.47;1.53;;;6.50;99.90;;;;;;5010772;28;20258;-48
2024/02/17 06:48:49;;;;;;;5.90;1.17;;;6.50;99.90;;;;;;5018894;28;20609;-53
2024/02/17 06:51:16;;;;;;;8.37;1.90;;;6.50;99.90;;;;;;4997019;28;20231;-48
2024/02/17 06:53:43;;;;;;;5.20;2.00;;;6.50;99.90;;;;;;5003882;28;20208;-51
2024/02/17 06:56:09;;;;;;;5.73;1.33;;;6.50;99.90;;;;;;5019917;28;20220;-45
2024/02/17 06:58:36;;;;;;;7.13;1.27;;;6.50;99.90;;;;;;5020251;28;20197;-51
2024/02/17 07:01:05;;;;;;;10.53;1.50;;;6.60;99.90;;;;;;5010454;28;20216;-51
2024/02/17 07:03:32;;;;;;;4.67;1.30;;;6.60;99.90;;;;;;5008929;28;20297;-50
2024/02/17 07:05:59;;;;;;;13.07;1.70;;;6.60;99.90;;;;;;4983988;28;20220;-50
2024/02/17 07:08:26;;;;;;;8.67;1.50;;;6.60;99.90;;;;;;5003441;28;20626;-50
2024/02/17 07:10:53;;;;;;;7.13;1.30;;;6.60;99.90;;;;;;5010818;28;20698;-50
2024/02/17 07:13:20;;;;;;;8.67;1.70;;;6.60;99.90;;;;;;5011282;28;20200;-49
2024/02/17 07:15:47;;;;;;;8.63;1.47;;;6.60;99.90;;;;;;5016552;28;20871;-51
2024/02/17 07:18:16;;;;;;;5.83;1.50;;;6.60;99.90;;;;;;5000902;28;20286;-48
2024/02/17 07:20:44;;;;;;;7.80;1.40;;;6.60;99.90;;;;;;5018994;28;20196;-49
2024/02/17 07:23:13;;;;;;;8.73;1.87;;;6.70;99.90;;;;;;4991313;28;20220;-48
2024/02/17 07:25:41;;;;;;;8.00;1.50;;;6.70;99.90;;;;;;5012266;28;20227;-51
2024/02/17 07:28:11;;;;;;;7.17;2.13;;;6.70;99.90;;;;;;5000519;28;20294;-47
2024/02/17 07:30:41;;;;;;;7.87;1.70;;;6.70;99.90;;;;;;5014723;28;20200;-51
2024/02/17 07:33:09;;;;;;;10.30;1.60;;;6.70;99.90;;;;;;5005971;28;20197;-50
2024/02/17 07:35:41;;;;;;;15.17;3.20;;;6.70;99.90;;;;;;5020004;28;20247;-48
2024/02/17 07:38:09;;;;;;;13.73;1.40;;;6.70;99.90;;;;;;4990053;28;20212;-47
2024/02/17 07:40:35;;;;;;;10.80;2.17;;;6.70;99.90;;;;;;5014030;28;20203;-50
2024/02/17 07:43:02;;;;;;;13.23;2.20;;;6.70;99.90;;;;;;5004580;28;20196;-53
2024/02/17 07:45:29;;;;;;;12.07;1.60;;;6.70;99.90;;;;;;5017482;28;20231;-47
2024/02/17 07:47:56;;;;;;;8.47;1.60;;;6.70;99.90;;;;;;5011297;28;20267;-51
2024/02/17 07:50:23;;;;;;;10.57;1.80;;;6.70;99.90;;;;;;5020451;28;20180;-47
2024/02/17 07:52:52;;;;;;;9.77;2.27;;;6.80;99.90;;;;;;5013547;28;20254;-50
2024/02/17 07:55:18;;;;;;;11.43;1.50;;;6.70;99.90;;;;;;4996880;28;20250;-46
2024/02/17 07:57:45;;;;;;;11.07;1.60;;;6.80;99.90;;;;;;5002900;28;20549;-48
2024/02/17 08:00:14;;;;;;;10.00;2.67;;;6.80;99.90;;;;;;5006074;28;20219;-48
2024/02/17 08:02:41;;;;;;;5.30;1.00;;;6.80;99.90;;;;;;5010786;28;20266;-52
2024/02/17 08:05:08;;;;;;;12.70;1.43;;;6.80;99.90;;;;;;5003714;28;20220;-47
2024/02/17 08:07:35;;;;;;;16.00;2.10;;;6.70;99.90;;;;;;5015316;28;20188;-52
2024/02/17 08:10:04;;;;;;;7.90;1.50;;;6.80;99.90;;;;;;4990852;28;20214;-50
2024/02/17 08:12:31;;;;;;;15.47;2.43;;;6.80;99.90;;;;;;5006444;28;20199;-50
2024/02/17 08:14:58;;;;;;;11.40;2.30;;;6.90;99.90;;;;;;5010048;28;20338;-47
2024/02/17 08:17:25;;;;;;;8.63;1.70;;;6.80;99.90;;;;;;5011549;28;20289;-51
2024/02/17 08:19:52;;;;;;;9.17;2.10;;;6.80;99.90;;;;;;5005718;28;20204;-49
2024/02/17 08:22:19;;;;;;;10.27;1.90;;;6.80;99.90;;;;;;5020544;28;20200;-47
2024/02/17 08:24:46;;;;;;;11.17;2.07;;;6.80;99.90;;;;;;4989256;28;20208;-50
2024/02/17 08:27:14;;;;;;;13.30;1.93;;;6.90;99.90;;;;;;5020246;28;20299;-50
2024/02/17 08:29:41;;;;;;;8.53;1.97;;;6.80;99.90;;;;;;5001636;28;21624;-50
2024/02/17 08:32:08;;;;;;;9.07;1.83;;;6.80;99.90;;;;;;5010846;28;20215;-47
2024/02/17 08:34:35;;;;;;;7.87;1.60;;;6.90;99.90;;;;;;5004207;28;20278;-52
2024/02/17 08:37:02;;;;;;;7.07;2.30;;;6.80;99.90;;;;;;5018752;28;20223;-50
2024/02/17 08:39:28;;;;;;;10.90;2.33;;;6.90;99.90;;;;;;5016604;28;20623;-53
2024/02/17 08:41:55;;;;;;;7.37;1.30;;;6.80;99.90;;;;;;4981071;28;20257;-53
2024/02/17 08:44:24;;;;;;;6.13;1.30;;;6.90;99.90;;;;;;4995383;28;20228;-49
2024/02/17 08:46:50;;;;;;;8.03;1.70;;;6.90;99.90;;;;;;5004667;28;20608;-50
2024/02/17 08:49:17;;;;;;;11.60;1.80;;;6.90;99.90;;;;;;5008942;28;20875;-46
2024/02/17 08:51:44;;;;;;;15.03;2.13;;;6.90;99.90;;;;;;5018893;28;20647;-48
2024/02/17 08:54:15;;;;;;;7.37;1.80;;;6.90;99.90;;;;;;5016242;28;20231;-50
2024/02/17 08:56:42;;;;;;;11.53;1.87;;;6.90;99.90;;;;;;4995068;28;20228;-49
2024/02/17 08:59:10;;;;;;;10.30;1.93;;;6.90;99.90;;;;;;4999439;28;20229;-47
2024/02/17 09:01:38;;;;;;;8.47;1.80;;;6.90;99.90;;;;;;5003277;28;20227;-50
2024/02/17 09:04:05;;;;;;;6.03;1.67;;;6.90;99.90;;;;;;5000811;28;20258;-48
2024/02/17 09:06:32;;;;;;;10.13;1.77;;;6.90;99.90;;;;;;5009748;28;20232;-51
2024/02/17 09:08:58;;;;;;;15.77;2.60;;;7.00;99.90;;;;;;5016065;28;20514;-50
2024/02/17 09:11:25;;;;;;;15.27;2.30;;;7.00;99.90;;;;;;5019550;28;20196;-49
2024/02/17 09:13:52;;;;;;;7.80;1.77;;;7.00;99.90;;;;;;4996236;28;20197;-48
2024/02/17 09:16:19;;;;;;;8.97;1.90;;;7.00;99.90;;;;;;5005962;28;20227;-47
2024/02/17 09:18:47;;;;;;;9.60;2.30;;;7.00;99.90;;;;;;4990156;28;20204;-46
2024/02/17 09:21:14;;;;;;;8.33;1.63;;;7.10;99.90;;;;;;5008707;28;20207;-45
2024/02/17 09:23:41;;;;;;;9.70;2.47;;;7.00;99.90;;;;;;5017227;28;20266;-51
2024/02/17 09:26:08;;;;;;;8.70;1.80;;;7.00;99.90;;;;;;5019026;28;20212;-46
2024/02/17 09:28:36;;;;;;;5.90;1.33;;;6.90;99.90;;;;;;4993647;28;20223;-51
2024/02/17 09:31:03;;;;;;;9.07;2.40;;;6.90;99.90;;;;;;5010394;28;20205;-49
2024/02/17 09:33:30;;;;;;;11.97;2.23;;;6.90;99.90;;;;;;5000811;28;20655;-52
2024/02/17 09:35:58;;;;;;;9.17;1.90;;;6.90;99.90;;;;;;5002501;28;20235;-46
2024/02/17 09:38:25;;;;;;;8.40;2.73;;;6.90;99.90;;;;;;5017743;28;20609;-49
2024/02/17 09:40:52;;;;;;;10.03;2.00;;;6.90;99.90;;;;;;5014395;28;20192;-46
2024/02/17 09:43:19;;;;;;;7.73;1.80;;;6.90;99.90;;;;;;4991441;28;20306;-48
2024/02/17 09:45:47;;;;;;;11.63;2.07;;;6.90;99.90;;;;;;5023287;28;20223;-49
2024/02/17 09:48:14;;;;;;;15.80;2.13;;;6.90;99.90;;;;;;5001930;28;20192;-45
2024/02/17 09:50:44;;;;;;;10.90;2.10;;;7.00;99.90;;;;;;5005223;28;20216;-46
2024/02/17 09:53:13;;;;;;;10.53;1.83;;;7.00;99.90;;;;;;5010565;28;20658;-50
2024/02/17 09:55:41;;;;;;;9.03;1.80;;;7.00;99.90;;;;;;5023141;28;20890;-46
2024/02/17 09:58:08;;;;;;;9.07;2.30;;;7.10;99.90;;;;;;4992669;28;20902;-50
2024/02/17 10:00:35;;;;;;;9.83;1.90;;;7.10;99.90;;;;;;5021394;28;20218;-46
2024/02/17 10:03:04;;;;;;;5.87;1.90;;;7.10;99.90;;;;;;5005873;28;21008;-51
2024/02/17 10:05:32;;;;;;;11.53;2.23;;;7.10;99.90;;;;;;4998451;28;20309;-49
2024/02/17 10:07:58;;;;;;;12.30;2.43;;;7.20;99.90;;;;;;5003030;28;20207;-52
2024/02/17 10:10:29;;;;;;;10.97;1.70;;;7.20;99.90;;;;;;5013246;28;20215;-52
2024/02/17 10:12:58;;;;;;;13.43;2.50;;;7.20;99.90;;;;;;4984618;28;20213;-46
2024/02/17 10:15:26;;;;;;;6.87;2.07;;;7.20;99.90;;;;;;5022402;28;20227;-51
2024/02/17 10:17:55;;;;;;;15.63;2.57;;;7.10;99.90;;;;;;5012168;28;20231;-49
2024/02/17 10:20:22;;;;;;;11.93;1.80;;;7.00;99.90;;;;;;5002271;28;20207;-46
2024/02/17 10:22:48;;;;;;;12.53;2.13;;;7.00;99.90;;;;;;4998458;28;20317;-47
2024/02/17 10:25:15;;;;;;;9.97;2.30;;;6.90;99.90;;;;;;5025553;28;20223;-46
2024/02/17 10:27:45;;;;;;;10.17;2.10;;;6.90;99.90;;;;;;4993717;28;20658;-51
2024/02/17 10:30:13;;;;;;;7.43;1.80;;;7.00;99.90;;;;;;5018967;28;20196;-50
2024/02/17 10:32:41;;;;;;;17.27;2.33;;;7.10;99.90;;;;;;5011887;28;20210;-52
2024/02/17 10:35:10;;;;;;;7.57;1.93;;;7.10;99.90;;;;;;5004562;28;20224;-52
2024/02/17 10:37:39;;;;;;;14.87;2.63;;;7.10;99.90;;;;;;5008331;28;20266;-53
2024/02/17 10:40:08;;;;;;;12.83;2.00;;;7.00;99.90;;;;;;5018926;28;20602;-49
2024/02/17 10:42:35;;;;;;;15.87;3.20;;;7.10;99.90;;;;;;5003304;28;20269;-51
2024/02/17 10:45:04;;;;;;;7.87;1.97;;;7.10;99.90;;;;;;5014595;28;20301;-47
2024/02/17 10:47:34;;;;;;;12.77;3.33;;;7.00;99.90;;;;;;5020457;28;20358;-53
2024/02/17 10:50:07;;;;;;;10.30;2.43;;;7.10;99.90;;;;;;5013351;28;20279;-47
2024/02/17 10:52:43;;;;;;;17.43;3.13;;;7.20;99.90;;;;;;5012100;28;20203;-50
2024/02/17 10:55:12;;;;;;;11.13;2.30;;;7.20;99.90;;;;;;5014525;28;20296;-48
2024/02/17 10:57:52;;;;;;;16.70;3.20;;;7.30;99.90;;;;;;4993990;28;20228;-52
2024/02/17 11:00:21;;;;;;;18.47;2.67;;;7.40;99.90;;;;;;5015688;28;20219;-50
2024/02/17 11:02:50;;;;;;;10.23;2.17;;;7.40;99.90;;;;;;5009207;28;20193;-47
2024/02/17 11:05:19;;;;;;;14.63;2.77;;;7.40;99.90;;;;;;5013686;28;20286;-51
2024/02/17 11:07:47;;;;;;;18.50;3.93;;;7.50;99.90;;;;;;4997543;28;20204;-48
2024/02/17 11:10:15;;;;;;;10.77;2.07;;;7.50;99.90;;;;;;5009720;28;20208;-47
2024/02/17 11:12:48;;;;;;;17.83;2.50;;;7.50;99.90;;;;;;5015907;28;20203;-54
2024/02/17 11:15:15;;;;;;;9.10;1.93;;;7.50;99.90;;;;;;4988938;28;20232;-49
2024/02/17 11:17:50;;;;;;;14.97;2.30;;;7.50;99.90;;;;;;5013842;28;20222;-52
2024/02/17 11:20:18;;;;;;;12.53;2.33;;;7.50;99.90;;;;;;5011951;28;20203;-50
2024/02/17 11:22:47;;;;;;;10.03;2.87;;;7.70;99.90;;;;;;5008245;28;20254;-50
2024/02/17 11:25:27;;;;;;;13.37;2.60;;;7.80;99.90;;;;;;5021078;28;20231;-51
2024/02/17 11:27:53;;;;;;;15.73;2.50;;;7.70;99.90;;;;;;5011691;28;20196;-51
2024/02/17 11:30:20;;;;;;;10.27;2.53;;;7.70;99.90;;;;;;4996440;28;20283;-50
2024/02/17 11:32:57;;;;;;;15.17;2.37;;;7.60;99.90;;;;;;5007459;28;20211;-49
2024/02/17 11:35:24;;;;;;;13.20;2.40;;;7.60;99.90;;;;;;5018530;28;20211;-52
2024/02/17 11:37:55;;;;;;;9.23;2.10;;;7.60;99.90;;;;;;5001713;28;20211;-48
2024/02/17 11:40:22;;;;;;;9.20;2.13;;;7.60;99.90;;;;;;5009557;28;20202;-53
2024/02/17 11:42:54;;;;;;;16.07;3.10;;;7.60;99.90;;;;;;5011468;28;20196;-53
2024/02/17 11:45:21;;;;;;;5.10;1.63;;;7.60;99.90;;;;;;4992430;28;20670;-53
2024/02/17 11:47:48;;;;;;;8.20;2.20;;;7.60;99.90;;;;;;5020832;28;20264;-49
2024/02/17 11:50:18;;;;;;;14.10;2.60;;;7.60;99.90;;;;;;5014707;28;20605;-51
2024/02/17 11:52:45;;;;;;;12.63;2.27;;;7.70;99.90;;;;;;4998243;28;20215;-50
2024/02/17 11:55:12;;;;;;;13.30;2.17;;;7.70;99.90;;;;;;5017723;28;20219;-51
2024/02/17 11:57:43;;;;;;;14.10;2.20;;;7.70;99.90;;;;;;5008030;28;20220;-51
2024/02/17 12:00:11;;;;;;;8.20;2.03;;;7.70;99.90;;;;;;5020653;28;20557;-49
2024/02/17 12:02:40;;;;;;;17.53;2.70;;;7.70;99.90;;;;;;4991283;28;20188;-46
2024/02/17 12:05:08;;;;;;;8.30;1.83;;;7.60;99.90;;;;;;5016660;28;20833;-46
2024/02/17 12:07:36;;;;;;;9.07;2.13;;;7.60;99.90;;;;;;5006259;28;20486;-49
2024/02/17 12:10:03;;;;;;;14.73;1.93;;;7.70;99.90;;;;;;5008719;28;20924;-49
2024/02/17 12:12:31;;;;;;;16.90;2.00;;;7.70;99.90;;;;;;5012272;28;20203;-46
2024/02/17 12:14:58;;;;;;;12.13;2.23;;;7.60;99.90;;;;;;5013667;28;20274;-48
2024/02/17 12:17:25;;;;;;;15.10;2.80;;;7.70;99.90;;;;;;4984784;28;20234;-50
2024/02/17 12:19:52;;;;;;;16.97;2.53;;;7.60;99.90;;;;;;5019265;28;20203;-48
2024/02/17 12:22:19;;;;;;;7.30;1.87;;;7.70;99.90;;;;;;5013503;28;20208;-48
2024/02/17 12:24:47;;;;;;;9.17;2.40;;;7.70;99.90;;;;;;5007987;28;21044;-49
2024/02/17 12:27:14;;;;;;;14.83;2.83;;;7.80;99.90;;;;;;5013991;28;20196;-52
2024/02/17 12:29:49;;;;;;;15.63;3.73;;;7.80;99.90;;;;;;5019294;28;20203;-50
2024/02/17 12:32:20;;;;;;;13.20;2.10;;;7.80;99.90;;;;;;4990455;28;20685;-52
2024/02/17 12:34:47;;;;;;;14.30;2.10;;;7.70;99.90;;;;;;5016888;28;20246;-49
2024/02/17 12:37:16;;;;;;;13.67;2.53;;;7.70;99.90;;;;;;5011223;28;20298;-51
2024/02/17 12:39:45;;;;;;;9.10;2.10;;;7.60;99.90;;;;;;5008826;28;20224;-47
2024/02/17 12:42:13;;;;;;;14.70;2.90;;;7.60;99.90;;;;;;5011279;28;20201;-51
2024/02/17 12:44:40;;;;;;;11.50;2.27;;;7.60;99.90;;;;;;5014159;28;20208;-49
2024/02/17 12:47:18;;;;;;;10.80;2.77;;;7.70;99.90;;;;;;4991654;28;20212;-50
2024/02/17 12:49:45;;;;;;;12.53;2.10;;;7.80;99.90;;;;;;5016982;28;20211;-48
2024/02/17 12:52:12;;;;;;;7.77;2.20;;;7.90;99.90;;;;;;5015661;28;20208;-50
2024/02/17 12:54:39;;;;;;;11.23;2.73;;;8.00;99.90;;;;;;5006942;28;20204;-51
2024/02/17 12:57:06;;;;;;;12.67;2.13;;;8.10;99.90;;;;;;5019449;28;20519;-48